Terminal Aerodrome Forecast
Issued by NWS

Home | Current Version | Previous Version | Text Only | Print | Product List | Glossary On
Versions: 1 2 3 4 5 6 7 8 9 10 11 12
102
FTUS43 KMQT 260529
TAFIWD
TAF
KIWD 260529Z 2606/2706 21004KT P6SM BKN250
     FM261400 25010KT P6SM BKN200
     FM261700 29010KT P6SM BKN100
     FM261900 32010KT P6SM VCSH OVC030
     FM262300 35006KT P6SM BKN040
     FM270100 35004KT P6SM SCT045=

USA.gov is the U.S. government's official web portal to all federal, state and local government web resources and services.